< < Back
Terminal Aerodrome Forecast


Current Version              Previous Versions:   1  2  3  4  5  6  7  8  9  

Terminal Aerodrome Forecast

304
FTUS42 KTAE 041813 AAA
TAFTLH
TAF AMD
KTLH 041813Z 0418/0518 36006KT P6SM VCTS SCT050CB
     FM050000 00000KT P6SM SCT050 SCT250
     FM051400 32004KT P6SM SCT040=

Latest METAR

388
SAUS80 KWBC 041900
MTRTLH
METAR KTLH 041853Z VRB03KT 10SM SCT055 BKN250 34/21 A2995 RMK AO2 SLP139
TCU DSNT NW VCSH S T03390211 $


USA.gov is the U.S. government's official web portal to all federal, state and local government web resources and services.